sensor_id;sensor_type;location;lat;lon;timestamp;temperature;humidity
22925;DHT22;11628;51.072;3.712;2022-10-16T00:01:20;14.40;99.90
22925;DHT22;11628;51.072;3.712;2022-10-16T00:03:47;14.40;99.90
22925;DHT22;11628;51.072;3.712;2022-10-16T00:06:15;14.40;99.90
22925;DHT22;11628;51.072;3.712;2022-10-16T00:08:41;14.40;99.90
22925;DHT22;11628;51.072;3.712;2022-10-16T00:11:13;14.30;99.90
22925;DHT22;11628;51.072;3.712;2022-10-16T00:13:41;14.30;99.90
22925;DHT22;11628;51.072;3.712;2022-10-16T00:16:07;14.20;99.90
22925;DHT22;11628;51.072;3.712;2022-10-16T00:18:34;14.20;99.90
22925;DHT22;11628;51.072;3.712;2022-10-16T00:21:05;14.20;99.90
22925;DHT22;11628;51.072;3.712;2022-10-16T00:23:31;14.10;99.90
22925;DHT22;11628;51.072;3.712;2022-10-16T00:25:59;14.10;99.90
22925;DHT22;11628;51.072;3.712;2022-10-16T00:28:26;14.10;99.90
22925;DHT22;11628;51.072;3.712;2022-10-16T00:30:52;14.10;99.90
22925;DHT22;11628;51.072;3.712;2022-10-16T00:33:17;14.10;99.90
22925;DHT22;11628;51.072;3.712;2022-10-16T00:35:43;14.10;99.90
22925;DHT22;11628;51.072;3.712;2022-10-16T00:38:09;14.10;99.90
22925;DHT22;11628;51.072;3.712;2022-10-16T00:40:35;14.10;99.90
22925;DHT22;11628;51.072;3.712;2022-10-16T00:43:01;14.10;99.90
22925;DHT22;11628;51.072;3.712;2022-10-16T00:45:26;14.10;99.90
22925;DHT22;11628;51.072;3.712;2022-10-16T00:47:54;14.10;99.90
22925;DHT22;11628;51.072;3.712;2022-10-16T00:50:30;14.00;99.90
22925;DHT22;11628;51.072;3.712;2022-10-16T00:52:58;14.00;99.90
22925;DHT22;11628;51.072;3.712;2022-10-16T00:55:24;14.00;99.90
22925;DHT22;11628;51.072;3.712;2022-10-16T00:57:51;13.90;99.90
22925;DHT22;11628;51.072;3.712;2022-10-16T01:00:21;13.90;99.90
22925;DHT22;11628;51.072;3.712;2022-10-16T01:02:56;13.90;99.90
22925;DHT22;11628;51.072;3.712;2022-10-16T01:05:32;13.90;99.90
22925;DHT22;11628;51.072;3.712;2022-10-16T01:08:15;13.90;99.90
22925;DHT22;11628;51.072;3.712;2022-10-16T01:10:59;13.90;99.90
22925;DHT22;11628;51.072;3.712;2022-10-16T01:13:28;13.80;99.90
22925;DHT22;11628;51.072;3.712;2022-10-16T01:18:49;13.80;99.90
22925;DHT22;11628;51.072;3.712;2022-10-16T01:21:31;13.80;99.90
22925;DHT22;11628;51.072;3.712;2022-10-16T01:24:06;13.80;99.90
22925;DHT22;11628;51.072;3.712;2022-10-16T01:32:36;13.80;99.90
22925;DHT22;11628;51.072;3.712;2022-10-16T01:35:18;13.80;99.90
22925;DHT22;11628;51.072;3.712;2022-10-16T01:38:02;13.80;99.90
22925;DHT22;11628;51.072;3.712;2022-10-16T01:40:30;13.70;99.90
22925;DHT22;11628;51.072;3.712;2022-10-16T01:43:06;13.70;99.90
22925;DHT22;11628;51.072;3.712;2022-10-16T01:45:35;13.70;99.90
22925;DHT22;11628;51.072;3.712;2022-10-16T01:48:05;13.70;99.90
22925;DHT22;11628;51.072;3.712;2022-10-16T01:50:35;13.70;99.90
22925;DHT22;11628;51.072;3.712;2022-10-16T01:53:04;13.70;99.90
22925;DHT22;11628;51.072;3.712;2022-10-16T01:55:37;13.70;99.90
22925;DHT22;11628;51.072;3.712;2022-10-16T01:58:05;13.70;99.90
22925;DHT22;11628;51.072;3.712;2022-10-16T02:00:34;13.70;99.90
22925;DHT22;11628;51.072;3.712;2022-10-16T02:03:02;13.80;99.90
22925;DHT22;11628;51.072;3.712;2022-10-16T02:05:34;13.70;99.90
22925;DHT22;11628;51.072;3.712;2022-10-16T02:08:03;13.70;99.90
22925;DHT22;11628;51.072;3.712;2022-10-16T02:10:28;13.70;99.90
22925;DHT22;11628;51.072;3.712;2022-10-16T02:13:23;13.70;99.90
22925;DHT22;11628;51.072;3.712;2022-10-16T02:15:51;13.70;99.90
22925;DHT22;11628;51.072;3.712;2022-10-16T02:18:17;13.70;99.90
22925;DHT22;11628;51.072;3.712;2022-10-16T02:20:51;13.70;99.90
22925;DHT22;11628;51.072;3.712;2022-10-16T02:23:49;13.70;99.90
22925;DHT22;11628;51.072;3.712;2022-10-16T02:26:30;13.60;99.90
22925;DHT22;11628;51.072;3.712;2022-10-16T02:29:01;13.60;99.90
22925;DHT22;11628;51.072;3.712;2022-10-16T02:31:32;13.60;99.90
22925;DHT22;11628;51.072;3.712;2022-10-16T02:34:00;13.60;99.90
22925;DHT22;11628;51.072;3.712;2022-10-16T02:36:27;13.60;99.90
22925;DHT22;11628;51.072;3.712;2022-10-16T02:38:53;13.60;99.90
22925;DHT22;11628;51.072;3.712;2022-10-16T02:41:21;13.60;99.90
22925;DHT22;11628;51.072;3.712;2022-10-16T02:43:47;13.60;99.90
22925;DHT22;11628;51.072;3.712;2022-10-16T02:46:13;13.60;99.90
22925;DHT22;11628;51.072;3.712;2022-10-16T02:48:38;13.60;99.90
22925;DHT22;11628;51.072;3.712;2022-10-16T02:51:04;13.60;99.90
22925;DHT22;11628;51.072;3.712;2022-10-16T02:53:30;13.50;99.90
22925;DHT22;11628;51.072;3.712;2022-10-16T02:55:56;13.50;99.90
22925;DHT22;11628;51.072;3.712;2022-10-16T02:58:21;13.50;99.90
22925;DHT22;11628;51.072;3.712;2022-10-16T03:00:47;13.50;99.90
22925;DHT22;11628;51.072;3.712;2022-10-16T03:03:13;13.50;99.90
22925;DHT22;11628;51.072;3.712;2022-10-16T03:05:39;13.50;99.90
22925;DHT22;11628;51.072;3.712;2022-10-16T03:08:04;13.50;99.90
22925;DHT22;11628;51.072;3.712;2022-10-16T03:10:30;13.50;99.90
22925;DHT22;11628;51.072;3.712;2022-10-16T03:12:56;13.40;99.90
22925;DHT22;11628;51.072;3.712;2022-10-16T03:15:22;13.40;99.90
22925;DHT22;11628;51.072;3.712;2022-10-16T03:17:47;13.40;99.90
22925;DHT22;11628;51.072;3.712;2022-10-16T03:20:13;13.40;99.90
22925;DHT22;11628;51.072;3.712;2022-10-16T03:22:39;13.40;99.90
22925;DHT22;11628;51.072;3.712;2022-10-16T03:25:05;13.40;99.90
22925;DHT22;11628;51.072;3.712;2022-10-16T03:27:33;13.40;99.90
22925;DHT22;11628;51.072;3.712;2022-10-16T03:29:59;13.40;99.90
22925;DHT22;11628;51.072;3.712;2022-10-16T03:32:25;13.40;99.90
22925;DHT22;11628;51.072;3.712;2022-10-16T03:34:50;13.40;99.90
22925;DHT22;11628;51.072;3.712;2022-10-16T03:37:16;13.40;99.90
22925;DHT22;11628;51.072;3.712;2022-10-16T03:39:41;13.30;99.90
22925;DHT22;11628;51.072;3.712;2022-10-16T03:42:10;13.30;99.90
22925;DHT22;11628;51.072;3.712;2022-10-16T03:44:39;13.30;99.90
22925;DHT22;11628;51.072;3.712;2022-10-16T03:47:05;13.30;99.90
22925;DHT22;11628;51.072;3.712;2022-10-16T03:49:30;13.30;99.90
22925;DHT22;11628;51.072;3.712;2022-10-16T03:51:56;13.30;99.90
22925;DHT22;11628;51.072;3.712;2022-10-16T03:54:21;13.30;99.90
22925;DHT22;11628;51.072;3.712;2022-10-16T03:56:48;13.30;99.90
22925;DHT22;11628;51.072;3.712;2022-10-16T03:59:13;13.30;99.90
22925;DHT22;11628;51.072;3.712;2022-10-16T04:01:39;13.20;99.90
22925;DHT22;11628;51.072;3.712;2022-10-16T04:04:05;13.30;99.90
22925;DHT22;11628;51.072;3.712;2022-10-16T04:06:31;13.20;99.90
22925;DHT22;11628;51.072;3.712;2022-10-16T04:08:56;13.20;99.90
22925;DHT22;11628;51.072;3.712;2022-10-16T04:11:22;13.20;99.90
22925;DHT22;11628;51.072;3.712;2022-10-16T04:13:48;13.20;99.90
22925;DHT22;11628;51.072;3.712;2022-10-16T04:16:14;13.20;99.90
22925;DHT22;11628;51.072;3.712;2022-10-16T04:18:39;13.20;99.90
22925;DHT22;11628;51.072;3.712;2022-10-16T04:21:06;13.20;99.90
22925;DHT22;11628;51.072;3.712;2022-10-16T04:23:32;13.20;99.90
22925;DHT22;11628;51.072;3.712;2022-10-16T04:25:58;13.20;99.90
22925;DHT22;11628;51.072;3.712;2022-10-16T04:28:24;13.10;99.90
22925;DHT22;11628;51.072;3.712;2022-10-16T04:30:50;13.10;99.90
22925;DHT22;11628;51.072;3.712;2022-10-16T04:33:16;13.10;99.90
22925;DHT22;11628;51.072;3.712;2022-10-16T04:35:41;13.10;99.90
22925;DHT22;11628;51.072;3.712;2022-10-16T04:38:07;13.10;99.90
22925;DHT22;11628;51.072;3.712;2022-10-16T04:40:33;13.10;99.90
22925;DHT22;11628;51.072;3.712;2022-10-16T04:43:04;13.10;99.90
22925;DHT22;11628;51.072;3.712;2022-10-16T04:45:30;13.10;99.90
22925;DHT22;11628;51.072;3.712;2022-10-16T04:47:59;13.10;99.90
22925;DHT22;11628;51.072;3.712;2022-10-16T04:50:25;13.10;99.90
22925;DHT22;11628;51.072;3.712;2022-10-16T04:52:51;13.10;99.90
22925;DHT22;11628;51.072;3.712;2022-10-16T04:55:17;13.10;99.90
22925;DHT22;11628;51.072;3.712;2022-10-16T04:57:42;13.00;99.90
22925;DHT22;11628;51.072;3.712;2022-10-16T05:00:08;13.10;99.90
22925;DHT22;11628;51.072;3.712;2022-10-16T05:02:35;13.00;99.90
22925;DHT22;11628;51.072;3.712;2022-10-16T05:05:00;13.00;99.90
22925;DHT22;11628;51.072;3.712;2022-10-16T05:07:26;13.00;99.90
22925;DHT22;11628;51.072;3.712;2022-10-16T05:09:52;13.00;99.90
22925;DHT22;11628;51.072;3.712;2022-10-16T05:12:21;13.00;99.90
22925;DHT22;11628;51.072;3.712;2022-10-16T05:14:46;13.10;99.90
22925;DHT22;11628;51.072;3.712;2022-10-16T05:17:12;13.10;99.90
22925;DHT22;11628;51.072;3.712;2022-10-16T05:19:38;13.20;99.90
22925;DHT22;11628;51.072;3.712;2022-10-16T05:22:03;13.20;99.90
22925;DHT22;11628;51.072;3.712;2022-10-16T05:24:29;13.20;99.90
22925;DHT22;11628;51.072;3.712;2022-10-16T05:26:55;13.40;99.90
22925;DHT22;11628;51.072;3.712;2022-10-16T05:29:20;13.50;99.90
22925;DHT22;11628;51.072;3.712;2022-10-16T05:31:46;13.70;99.90
22925;DHT22;11628;51.072;3.712;2022-10-16T05:34:12;13.60;99.90
22925;DHT22;11628;51.072;3.712;2022-10-16T05:36:38;13.70;99.90
22925;DHT22;11628;51.072;3.712;2022-10-16T05:39:03;13.70;99.90
22925;DHT22;11628;51.072;3.712;2022-10-16T05:41:29;13.70;99.90
22925;DHT22;11628;51.072;3.712;2022-10-16T05:43:55;13.80;99.90
22925;DHT22;11628;51.072;3.712;2022-10-16T05:46:20;13.60;99.90
22925;DHT22;11628;51.072;3.712;2022-10-16T05:48:46;13.60;99.90
22925;DHT22;11628;51.072;3.712;2022-10-16T05:51:14;13.50;99.90
22925;DHT22;11628;51.072;3.712;2022-10-16T05:53:40;13.40;99.90
22925;DHT22;11628;51.072;3.712;2022-10-16T05:56:08;13.40;99.90
22925;DHT22;11628;51.072;3.712;2022-10-16T05:58:36;13.30;99.90
22925;DHT22;11628;51.072;3.712;2022-10-16T06:01:04;13.20;99.90
22925;DHT22;11628;51.072;3.712;2022-10-16T06:03:30;13.20;99.90
22925;DHT22;11628;51.072;3.712;2022-10-16T06:05:55;13.10;99.90
22925;DHT22;11628;51.072;3.712;2022-10-16T06:08:22;13.10;99.90
22925;DHT22;11628;51.072;3.712;2022-10-16T06:10:49;13.10;99.90
22925;DHT22;11628;51.072;3.712;2022-10-16T06:13:15;13.10;99.90
22925;DHT22;11628;51.072;3.712;2022-10-16T06:15:42;13.10;99.90
22925;DHT22;11628;51.072;3.712;2022-10-16T06:18:09;13.10;99.90
22925;DHT22;11628;51.072;3.712;2022-10-16T06:20:35;13.00;99.90
22925;DHT22;11628;51.072;3.712;2022-10-16T06:23:02;13.00;99.90
22925;DHT22;11628;51.072;3.712;2022-10-16T06:25:30;13.00;99.90
22925;DHT22;11628;51.072;3.712;2022-10-16T06:27:58;13.00;99.90
22925;DHT22;11628;51.072;3.712;2022-10-16T06:30:24;13.00;99.90
22925;DHT22;11628;51.072;3.712;2022-10-16T06:32:50;13.10;99.90
22925;DHT22;11628;51.072;3.712;2022-10-16T06:35:15;13.10;99.90
22925;DHT22;11628;51.072;3.712;2022-10-16T06:37:41;13.10;99.90
22925;DHT22;11628;51.072;3.712;2022-10-16T06:40:07;13.20;99.90
22925;DHT22;11628;51.072;3.712;2022-10-16T06:42:33;13.20;99.90
22925;DHT22;11628;51.072;3.712;2022-10-16T06:44:58;13.20;99.90
22925;DHT22;11628;51.072;3.712;2022-10-16T06:47:24;13.30;99.90
22925;DHT22;11628;51.072;3.712;2022-10-16T06:49:50;13.20;99.90
22925;DHT22;11628;51.072;3.712;2022-10-16T06:52:15;13.20;99.90
22925;DHT22;11628;51.072;3.712;2022-10-16T06:54:41;13.20;99.90
22925;DHT22;11628;51.072;3.712;2022-10-16T06:57:06;13.30;99.90
22925;DHT22;11628;51.072;3.712;2022-10-16T06:59:32;13.30;99.90
22925;DHT22;11628;51.072;3.712;2022-10-16T07:01:58;13.30;99.90
22925;DHT22;11628;51.072;3.712;2022-10-16T07:04:24;13.30;99.90
22925;DHT22;11628;51.072;3.712;2022-10-16T07:06:49;13.40;99.90
22925;DHT22;11628;51.072;3.712;2022-10-16T07:09:16;13.40;99.90
22925;DHT22;11628;51.072;3.712;2022-10-16T07:11:42;13.40;99.90
22925;DHT22;11628;51.072;3.712;2022-10-16T07:14:19;13.50;99.90
22925;DHT22;11628;51.072;3.712;2022-10-16T07:16:46;13.70;99.90
22925;DHT22;11628;51.072;3.712;2022-10-16T07:19:12;14.10;99.90
22925;DHT22;11628;51.072;3.712;2022-10-16T07:21:39;14.40;99.90
22925;DHT22;11628;51.072;3.712;2022-10-16T07:24:10;14.80;99.90
22925;DHT22;11628;51.072;3.712;2022-10-16T07:26:37;15.20;99.90
22925;DHT22;11628;51.072;3.712;2022-10-16T07:29:11;15.10;99.90
22925;DHT22;11628;51.072;3.712;2022-10-16T07:31:37;14.80;99.90
22925;DHT22;11628;51.072;3.712;2022-10-16T07:34:03;14.90;99.90
22925;DHT22;11628;51.072;3.712;2022-10-16T07:36:29;15.50;99.90
22925;DHT22;11628;51.072;3.712;2022-10-16T07:38:55;16.10;99.90
22925;DHT22;11628;51.072;3.712;2022-10-16T07:41:21;16.70;99.90
22925;DHT22;11628;51.072;3.712;2022-10-16T07:43:51;17.40;99.90
22925;DHT22;11628;51.072;3.712;2022-10-16T07:46:18;17.70;99.90
22925;DHT22;11628;51.072;3.712;2022-10-16T07:48:44;18.00;99.90
22925;DHT22;11628;51.072;3.712;2022-10-16T07:51:16;18.10;99.90
22925;DHT22;11628;51.072;3.712;2022-10-16T07:53:42;17.50;99.90
22925;DHT22;11628;51.072;3.712;2022-10-16T07:56:08;17.50;99.90
22925;DHT22;11628;51.072;3.712;2022-10-16T07:58:35;18.50;99.90
22925;DHT22;11628;51.072;3.712;2022-10-16T08:01:05;19.10;99.90
22925;DHT22;11628;51.072;3.712;2022-10-16T08:03:31;19.60;99.90
22925;DHT22;11628;51.072;3.712;2022-10-16T08:05:57;19.90;99.90
22925;DHT22;11628;51.072;3.712;2022-10-16T08:08:23;19.90;99.90
22925;DHT22;11628;51.072;3.712;2022-10-16T08:10:49;21.10;99.90
22925;DHT22;11628;51.072;3.712;2022-10-16T08:13:15;22.00;99.90
22925;DHT22;11628;51.072;3.712;2022-10-16T08:15:44;21.90;99.90
22925;DHT22;11628;51.072;3.712;2022-10-16T08:18:12;20.90;99.90
22925;DHT22;11628;51.072;3.712;2022-10-16T08:20:41;20.00;99.90
22925;DHT22;11628;51.072;3.712;2022-10-16T08:23:07;20.00;99.90
22925;DHT22;11628;51.072;3.712;2022-10-16T08:25:35;20.00;99.90
22925;DHT22;11628;51.072;3.712;2022-10-16T08:28:08;20.40;99.90
22925;DHT22;11628;51.072;3.712;2022-10-16T08:30:35;21.70;99.90
22925;DHT22;11628;51.072;3.712;2022-10-16T08:33:01;21.90;99.90
22925;DHT22;11628;51.072;3.712;2022-10-16T08:35:27;22.20;99.90
22925;DHT22;11628;51.072;3.712;2022-10-16T08:37:53;22.10;99.90
22925;DHT22;11628;51.072;3.712;2022-10-16T08:40:22;22.70;99.90
22925;DHT22;11628;51.072;3.712;2022-10-16T08:48:52;22.60;99.90
22925;DHT22;11628;51.072;3.712;2022-10-16T08:51:28;20.90;99.90
22925;DHT22;11628;51.072;3.712;2022-10-16T08:54:01;19.90;99.90
22925;DHT22;11628;51.072;3.712;2022-10-16T08:56:30;19.80;99.90
22925;DHT22;11628;51.072;3.712;2022-10-16T08:58:58;21.30;99.90
22925;DHT22;11628;51.072;3.712;2022-10-16T09:01:32;20.90;99.90
22925;DHT22;11628;51.072;3.712;2022-10-16T09:09:46;25.60;99.90
22925;DHT22;11628;51.072;3.712;2022-10-16T09:19:53;24.00;99.90
22925;DHT22;11628;51.072;3.712;2022-10-16T09:22:26;25.60;99.90
22925;DHT22;11628;51.072;3.712;2022-10-16T09:24:55;28.20;99.90
22925;DHT22;11628;51.072;3.712;2022-10-16T09:27:24;29.50;99.90
22925;DHT22;11628;51.072;3.712;2022-10-16T09:29:51;26.30;99.90
22925;DHT22;11628;51.072;3.712;2022-10-16T09:32:22;23.90;99.90
22925;DHT22;11628;51.072;3.712;2022-10-16T09:34:52;22.80;99.90
22925;DHT22;11628;51.072;3.712;2022-10-16T09:37:20;22.90;99.90
22925;DHT22;11628;51.072;3.712;2022-10-16T09:39:52;22.50;99.90
22925;DHT22;11628;51.072;3.712;2022-10-16T09:42:20;23.00;99.90
22925;DHT22;11628;51.072;3.712;2022-10-16T09:44:49;23.10;99.90
22925;DHT22;11628;51.072;3.712;2022-10-16T09:47:19;24.10;99.90
22925;DHT22;11628;51.072;3.712;2022-10-16T09:49:57;24.40;99.90
22925;DHT22;11628;51.072;3.712;2022-10-16T09:52:25;24.50;99.90
22925;DHT22;11628;51.072;3.712;2022-10-16T09:54:59;25.00;99.90
22925;DHT22;11628;51.072;3.712;2022-10-16T09:57:26;26.10;99.90
22925;DHT22;11628;51.072;3.712;2022-10-16T09:59:53;26.90;99.90
22925;DHT22;11628;51.072;3.712;2022-10-16T10:02:31;29.50;99.90
22925;DHT22;11628;51.072;3.712;2022-10-16T10:04:59;32.00;99.60
22925;DHT22;11628;51.072;3.712;2022-10-16T10:07:31;29.40;99.40
22925;DHT22;11628;51.072;3.712;2022-10-16T10:10:03;28.70;99.90
22925;DHT22;11628;51.072;3.712;2022-10-16T10:12:30;30.40;99.60
22925;DHT22;11628;51.072;3.712;2022-10-16T10:15:11;30.00;98.00
22925;DHT22;11628;51.072;3.712;2022-10-16T10:17:48;29.50;99.70
22925;DHT22;11628;51.072;3.712;2022-10-16T10:20:29;30.60;97.10
22925;DHT22;11628;51.072;3.712;2022-10-16T10:22:57;28.70;98.50
22925;DHT22;11628;51.072;3.712;2022-10-16T10:28:18;27.50;99.90
22925;DHT22;11628;51.072;3.712;2022-10-16T10:30:58;26.20;99.90
22925;DHT22;11628;51.072;3.712;2022-10-16T10:38:51;23.20;99.90
22925;DHT22;11628;51.072;3.712;2022-10-16T10:55:29;26.30;99.90
22925;DHT22;11628;51.072;3.712;2022-10-16T11:03:32;31.00;97.40
22925;DHT22;11628;51.072;3.712;2022-10-16T11:06:33;34.20;93.00
22925;DHT22;11628;51.072;3.712;2022-10-16T11:09:20;37.40;85.50
22925;DHT22;11628;51.072;3.712;2022-10-16T11:11:56;38.70;76.70
22925;DHT22;11628;51.072;3.712;2022-10-16T11:14:33;36.60;76.00
22925;DHT22;11628;51.072;3.712;2022-10-16T11:17:08;34.50;80.10
22925;DHT22;11628;51.072;3.712;2022-10-16T11:19:54;34.40;79.40
22925;DHT22;11628;51.072;3.712;2022-10-16T11:22:37;31.30;84.10
22925;DHT22;11628;51.072;3.712;2022-10-16T11:30:21;36.90;76.80
22925;DHT22;11628;51.072;3.712;2022-10-16T11:35:31;33.70;75.50
22925;DHT22;11628;51.072;3.712;2022-10-16T11:37:58;30.50;80.70
22925;DHT22;11628;51.072;3.712;2022-10-16T11:40:32;27.80;87.50
22925;DHT22;11628;51.072;3.712;2022-10-16T11:43:12;25.70;91.30
22925;DHT22;11628;51.072;3.712;2022-10-16T11:45:46;25.10;92.10
22925;DHT22;11628;51.072;3.712;2022-10-16T11:51:39;29.20;88.30
22925;DHT22;11628;51.072;3.712;2022-10-16T11:54:32;29.80;87.50
22925;DHT22;11628;51.072;3.712;2022-10-16T11:57:07;33.50;81.50
22925;DHT22;11628;51.072;3.712;2022-10-16T12:05:33;38.60;66.80
22925;DHT22;11628;51.072;3.712;2022-10-16T12:08:09;35.40;69.80
22925;DHT22;11628;51.072;3.712;2022-10-16T12:10:38;33.80;73.20
22925;DHT22;11628;51.072;3.712;2022-10-16T12:13:25;34.30;73.00
22925;DHT22;11628;51.072;3.712;2022-10-16T12:15:50;34.00;72.80
22925;DHT22;11628;51.072;3.712;2022-10-16T12:18:23;32.10;76.20
22925;DHT22;11628;51.072;3.712;2022-10-16T12:20:56;33.50;74.80
22925;DHT22;11628;51.072;3.712;2022-10-16T12:23:24;34.20;72.50
22925;DHT22;11628;51.072;3.712;2022-10-16T12:25:55;32.10;73.70
22925;DHT22;11628;51.072;3.712;2022-10-16T12:28:25;31.20;75.50
22925;DHT22;11628;51.072;3.712;2022-10-16T12:31:04;30.40;77.20
22925;DHT22;11628;51.072;3.712;2022-10-16T12:33:41;30.30;77.00
22925;DHT22;11628;51.072;3.712;2022-10-16T12:36:26;30.80;76.20
22925;DHT22;11628;51.072;3.712;2022-10-16T12:38:53;30.20;78.30
22925;DHT22;11628;51.072;3.712;2022-10-16T12:41:34;29.90;79.40
22925;DHT22;11628;51.072;3.712;2022-10-16T12:44:02;30.30;79.60
22925;DHT22;11628;51.072;3.712;2022-10-16T12:49:20;31.40;75.60
22925;DHT22;11628;51.072;3.712;2022-10-16T12:51:46;31.50;75.50
22925;DHT22;11628;51.072;3.712;2022-10-16T13:03:04;30.30;78.10
22925;DHT22;11628;51.072;3.712;2022-10-16T13:08:04;27.90;84.00
22925;DHT22;11628;51.072;3.712;2022-10-16T13:10:46;26.90;86.80
22925;DHT22;11628;51.072;3.712;2022-10-16T13:13:31;27.70;86.10
22925;DHT22;11628;51.072;3.712;2022-10-16T13:18:49;30.60;79.90
22925;DHT22;11628;51.072;3.712;2022-10-16T13:21:29;28.80;81.90
22925;DHT22;11628;51.072;3.712;2022-10-16T13:27:18;25.50;89.80
22925;DHT22;11628;51.072;3.712;2022-10-16T13:29:54;24.70;91.40
22925;DHT22;11628;51.072;3.712;2022-10-16T13:32:26;24.50;91.70
22925;DHT22;11628;51.072;3.712;2022-10-16T13:34:52;24.00;92.40
22925;DHT22;11628;51.072;3.712;2022-10-16T13:37:21;23.90;92.80
22925;DHT22;11628;51.072;3.712;2022-10-16T13:39:47;24.00;92.70
22925;DHT22;11628;51.072;3.712;2022-10-16T13:42:26;24.00;92.90
22925;DHT22;11628;51.072;3.712;2022-10-16T13:44:55;24.20;93.10
22925;DHT22;11628;51.072;3.712;2022-10-16T13:47:25;25.50;92.00
22925;DHT22;11628;51.072;3.712;2022-10-16T13:50:06;25.70;91.20
22925;DHT22;11628;51.072;3.712;2022-10-16T13:52:32;25.40;91.40
22925;DHT22;11628;51.072;3.712;2022-10-16T13:54:58;25.20;91.90
22925;DHT22;11628;51.072;3.712;2022-10-16T13:57:24;25.10;92.30
22925;DHT22;11628;51.072;3.712;2022-10-16T13:59:51;24.50;93.10
22925;DHT22;11628;51.072;3.712;2022-10-16T14:02:25;24.00;93.80
22925;DHT22;11628;51.072;3.712;2022-10-16T14:04:52;23.60;94.50
22925;DHT22;11628;51.072;3.712;2022-10-16T14:07:25;23.40;95.00
22925;DHT22;11628;51.072;3.712;2022-10-16T14:09:52;23.20;95.30
22925;DHT22;11628;51.072;3.712;2022-10-16T14:12:18;23.30;95.30
22925;DHT22;11628;51.072;3.712;2022-10-16T14:14:50;23.30;95.40
22925;DHT22;11628;51.072;3.712;2022-10-16T14:17:23;23.20;95.60
22925;DHT22;11628;51.072;3.712;2022-10-16T14:19:52;23.00;96.20
22925;DHT22;11628;51.072;3.712;2022-10-16T14:22:35;23.20;96.60
22925;DHT22;11628;51.072;3.712;2022-10-16T14:25:15;23.00;96.80
22925;DHT22;11628;51.072;3.712;2022-10-16T14:27:45;23.00;97.10
22925;DHT22;11628;51.072;3.712;2022-10-16T14:30:15;22.70;97.70
22925;DHT22;11628;51.072;3.712;2022-10-16T14:32:42;22.40;98.50
22925;DHT22;11628;51.072;3.712;2022-10-16T14:35:25;22.20;98.80
22925;DHT22;11628;51.072;3.712;2022-10-16T14:37:53;22.30;99.10
22925;DHT22;11628;51.072;3.712;2022-10-16T14:40:19;22.00;98.80
22925;DHT22;11628;51.072;3.712;2022-10-16T14:42:46;22.00;99.50
22925;DHT22;11628;51.072;3.712;2022-10-16T14:45:11;21.90;99.90
22925;DHT22;11628;51.072;3.712;2022-10-16T14:47:48;21.70;99.90
22925;DHT22;11628;51.072;3.712;2022-10-16T14:50:14;21.60;99.90
22925;DHT22;11628;51.072;3.712;2022-10-16T14:52:40;21.60;99.90
22925;DHT22;11628;51.072;3.712;2022-10-16T14:55:07;21.50;99.90
22925;DHT22;11628;51.072;3.712;2022-10-16T14:57:36;21.50;99.90
22925;DHT22;11628;51.072;3.712;2022-10-16T15:00:15;21.50;99.90
22925;DHT22;11628;51.072;3.712;2022-10-16T15:02:42;21.50;99.90
22925;DHT22;11628;51.072;3.712;2022-10-16T15:05:25;21.50;99.90
22925;DHT22;11628;51.072;3.712;2022-10-16T15:07:53;21.50;99.90
22925;DHT22;11628;51.072;3.712;2022-10-16T15:10:24;21.40;99.90
22925;DHT22;11628;51.072;3.712;2022-10-16T15:12:50;21.40;99.90
22925;DHT22;11628;51.072;3.712;2022-10-16T15:15:46;21.30;99.90
22925;DHT22;11628;51.072;3.712;2022-10-16T15:18:12;21.10;99.90
22925;DHT22;11628;51.072;3.712;2022-10-16T15:20:40;21.10;99.90
22925;DHT22;11628;51.072;3.712;2022-10-16T15:23:17;21.20;99.90
22925;DHT22;11628;51.072;3.712;2022-10-16T15:25:45;21.30;99.90
22925;DHT22;11628;51.072;3.712;2022-10-16T15:28:12;21.10;99.90
22925;DHT22;11628;51.072;3.712;2022-10-16T15:30:39;21.00;99.90
22925;DHT22;11628;51.072;3.712;2022-10-16T15:33:10;21.00;99.90
22925;DHT22;11628;51.072;3.712;2022-10-16T15:35:36;21.00;99.90
22925;DHT22;11628;51.072;3.712;2022-10-16T15:38:02;20.90;99.90
22925;DHT22;11628;51.072;3.712;2022-10-16T15:40:27;20.90;99.90
22925;DHT22;11628;51.072;3.712;2022-10-16T15:42:53;20.80;99.90
22925;DHT22;11628;51.072;3.712;2022-10-16T15:45:20;20.70;99.90
22925;DHT22;11628;51.072;3.712;2022-10-16T15:47:46;20.70;99.90
22925;DHT22;11628;51.072;3.712;2022-10-16T15:50:13;20.70;99.90
22925;DHT22;11628;51.072;3.712;2022-10-16T15:52:39;20.50;99.90
22925;DHT22;11628;51.072;3.712;2022-10-16T15:55:09;20.40;99.90
22925;DHT22;11628;51.072;3.712;2022-10-16T15:57:36;20.40;99.90
22925;DHT22;11628;51.072;3.712;2022-10-16T16:00:05;20.40;99.90
22925;DHT22;11628;51.072;3.712;2022-10-16T16:02:32;20.30;99.90
22925;DHT22;11628;51.072;3.712;2022-10-16T16:04:57;20.40;99.90
22925;DHT22;11628;51.072;3.712;2022-10-16T16:07:23;20.40;99.90
22925;DHT22;11628;51.072;3.712;2022-10-16T16:09:49;20.40;99.90
22925;DHT22;11628;51.072;3.712;2022-10-16T16:12:14;20.30;99.90
22925;DHT22;11628;51.072;3.712;2022-10-16T16:14:40;20.40;99.90
22925;DHT22;11628;51.072;3.712;2022-10-16T16:17:06;20.50;99.90
22925;DHT22;11628;51.072;3.712;2022-10-16T16:19:32;20.50;99.90
22925;DHT22;11628;51.072;3.712;2022-10-16T16:21:58;20.60;99.90
22925;DHT22;11628;51.072;3.712;2022-10-16T16:24:24;20.60;99.90
22925;DHT22;11628;51.072;3.712;2022-10-16T16:26:50;20.70;99.90
22925;DHT22;11628;51.072;3.712;2022-10-16T16:29:15;20.70;99.90
22925;DHT22;11628;51.072;3.712;2022-10-16T16:31:42;20.70;99.90
22925;DHT22;11628;51.072;3.712;2022-10-16T16:34:08;20.60;99.90
22925;DHT22;11628;51.072;3.712;2022-10-16T16:36:34;20.60;99.90
22925;DHT22;11628;51.072;3.712;2022-10-16T16:39:01;20.60;99.90
22925;DHT22;11628;51.072;3.712;2022-10-16T16:41:29;20.50;99.90
22925;DHT22;11628;51.072;3.712;2022-10-16T16:44:01;20.50;99.90
22925;DHT22;11628;51.072;3.712;2022-10-16T16:46:27;20.50;99.90
22925;DHT22;11628;51.072;3.712;2022-10-16T16:48:52;20.40;99.90
22925;DHT22;11628;51.072;3.712;2022-10-16T16:51:21;20.30;99.90
22925;DHT22;11628;51.072;3.712;2022-10-16T16:53:49;20.30;99.90
22925;DHT22;11628;51.072;3.712;2022-10-16T16:56:15;20.20;99.90
22925;DHT22;11628;51.072;3.712;2022-10-16T16:58:40;20.10;99.90
22925;DHT22;11628;51.072;3.712;2022-10-16T17:01:09;20.10;99.90
22925;DHT22;11628;51.072;3.712;2022-10-16T17:03:42;20.10;99.90
22925;DHT22;11628;51.072;3.712;2022-10-16T17:06:12;20.10;99.90
22925;DHT22;11628;51.072;3.712;2022-10-16T17:08:40;20.00;99.90
22925;DHT22;11628;51.072;3.712;2022-10-16T17:11:11;20.00;99.90
22925;DHT22;11628;51.072;3.712;2022-10-16T17:13:36;20.00;99.90
22925;DHT22;11628;51.072;3.712;2022-10-16T17:16:04;19.90;99.90